• Join FlightAware (Why Join?)
  • Login
  • US Flag 
04:06PM EDT


 

Airport Tracker/Info


-or-


 

Live Flight TrackerFlight Track Log ✈ N201YG ✈ 19-May-2012 ✈ KSNA - KVGT

Flight Track Log - Related Links

Times and Time Zones

All times are in EDT time to prevent confusion due to time zone crossing. See the N201YG flight status page for this flight to view local times or setup timezone preferences in your user account.

Time Position Orientation Groundspeed Altitude Reporting Facility
EDT Latitude Longitude Course Direction KTS MPH feet Rate Location/Type
05:05PM 34.4192 -117.1586 44° Northeast 126 145 9,600  Level Los Angeles Center
05:09PM 34.5372 -117.0214 40° Northeast 146 168 9,500 -60 Descending Los Angeles Center
05:10PM 34.5689 -116.9889 45° Northeast 146 168 9,500  Level Los Angeles Center
05:11PM 34.6003 -116.9514 46° Northeast 146 168 9,500  Level Los Angeles Center
05:12PM 34.6297 -116.9139 44° Northeast 146 168 9,600  Climbing Los Angeles Center
05:13PM 34.6633 -116.8739 43° Northeast 151 174 9,600 -60 Level Los Angeles Center
05:14PM 34.6969 -116.8361 44° Northeast 156 180 9,500  Descending Los Angeles Center
05:15PM 34.7308 -116.7961 43° Northeast 156 180 9,600  Climbing Los Angeles Center
05:16PM 34.7644 -116.7583 43° Northeast 161 185 9,500 -60 Descending Los Angeles Center
05:17PM 34.7978 -116.7208 43° Northeast 161 185 9,500  Level Los Angeles Center
05:18PM 34.8314 -116.6831 43° Northeast 161 185 9,500  Level Los Angeles Center
05:19PM 34.8650 -116.6453 41° Northeast 161 185 9,600  Climbing Los Angeles Center
05:20PM 34.9006 -116.6075 41° Northeast 161 185 9,500 -60 Descending Los Angeles Center
05:21PM 34.9342 -116.5722 43° Northeast 161 185 9,500  Level Los Angeles Center
05:22PM 34.9678 -116.5344 39° Northeast 161 185 9,600  Climbing Los Angeles Center
05:23PM 35.0033 -116.4992 41° Northeast 161 185 9,500 -60 Descending Los Angeles Center
05:24PM 35.0367 -116.4636 41° Northeast 161 185 9,500  Level Los Angeles Center
05:25PM 35.0703 -116.4283 41° Northeast 161 185 9,500  Level Los Angeles Center
05:26PM 35.1036 -116.3931 41° Northeast 161 185 9,500  Level Los Angeles Center
05:27PM 35.1372 -116.3575 41° Northeast 161 185 9,500  Level Los Angeles Center
05:28PM 35.1686 -116.3244 39° Northeast 161 185 9,500  Level Los Angeles Center
05:29PM 35.2019 -116.2917 56° Northeast 161 185 9,500  Level Los Angeles Center
05:30PM 35.2272 -116.2458 67° East 156 180 9,600  Climbing Los Angeles Center
05:31PM 35.2458 -116.1925 51° Northeast 156 180 9,500 -60 Descending Los Angeles Center
05:32PM 35.2731 -116.1517 49° Northeast 156 180 9,500  Level Los Angeles Center
05:33PM 35.3003 -116.1136 47° Northeast 150 173 9,500  Level Los Angeles Center
05:34PM 35.3294 -116.0753 51° Northeast 150 173 9,500  Level Los Angeles Center
05:35PM 35.3564 -116.0347 51° Northeast 150 173 9,500  Level Los Angeles Center
05:36PM 35.3836 -115.9939 53° Northeast 150 173 9,500  Level Los Angeles Center
05:37PM 35.4086 -115.9531 50° Northeast 150 173 9,500  Level Los Angeles Center
05:38PM 35.4378 -115.9097 52° Northeast 150 173 9,500  Level Los Angeles Center
05:39PM 35.4586 -115.8764 48° Northeast 155 178 9,500  Level Los Angeles Center
05:40PM 35.4939 -115.8278 52° Northeast 160 184 9,600  Climbing Los Angeles Center
05:41PM 35.5250 -115.7792 45° Northeast 160 184 9,500  Descending Los Angeles Center
05:42PM 35.5542 -115.7433 49° Northeast 160 184 9,600  Climbing Los Angeles Center
05:43PM 35.5833 -115.7025 49° Northeast 160 184 9,600 -60 Level Los Angeles Center
05:44PM 35.6122 -115.6614 47° Northeast 160 184 9,500  Descending Los Angeles Center
05:45PM 35.6414 -115.6231 53° Northeast 160 184 9,600  Climbing Los Angeles Center
05:46PM 35.6683 -115.5792 53° Northeast 160 184 9,500 -120 Descending Los Angeles Center